createdAt,value
2023-03-31T00:02:41.450Z,77.03
2023-03-31T00:07:43.940Z,77.18
2023-03-31T00:12:45.970Z,78.16
2023-03-31T00:17:47.749Z,77.69
2023-03-31T00:22:49.359Z,77.35
2023-03-31T00:27:52.721Z,76.81
2023-03-31T00:32:54.393Z,77.34
2023-03-31T00:37:57.920Z,76.75
2023-03-31T00:42:59.596Z,76.52
2023-03-31T00:48:10.448Z,76.90
2023-03-31T00:53:15.957Z,77.24
2023-03-31T00:58:20.293Z,76.61
2023-03-31T01:03:25.222Z,76.81
2023-03-31T01:08:27.690Z,76.66
2023-03-31T01:13:30.413Z,76.87
2023-03-31T01:18:34.987Z,76.76
2023-03-31T01:23:42.018Z,76.53
2023-03-31T01:29:02.839Z,76.98
2023-03-31T01:34:11.796Z,76.79
2023-03-31T01:39:50.341Z,76.52
2023-03-31T01:45:12.250Z,77.43
2023-03-31T01:50:46.711Z,77.14
2023-03-31T01:56:14.296Z,77.79
2023-03-31T02:01:21.115Z,76.62
2023-03-31T02:06:27.183Z,76.54
2023-03-31T02:11:30.195Z,77.46
2023-03-31T02:16:33.515Z,77.06
2023-03-31T02:21:38.714Z,77.00
2023-03-31T02:26:46.451Z,76.74
2023-03-31T02:31:55.178Z,77.49
2023-03-31T02:36:56.874Z,78.09
2023-03-31T02:41:58.660Z,77.95
2023-03-31T02:47:00.781Z,77.54
2023-03-31T02:52:08.364Z,77.96
2023-03-31T02:57:19.365Z,78.10
2023-03-31T03:02:36.955Z,77.60
2023-03-31T03:07:56.316Z,78.40
2023-03-31T03:13:18.271Z,78.77
2023-03-31T03:18:19.870Z,78.60
2023-03-31T03:23:22.659Z,79.25
2023-03-31T03:28:24.598Z,79.19
2023-03-31T03:33:26.231Z,79.11
2023-03-31T03:38:27.871Z,78.97
2023-03-31T03:43:29.473Z,79.07
2023-03-31T03:48:31.064Z,78.96
2023-03-31T03:53:32.796Z,78.70
2023-03-31T03:58:34.529Z,78.53
2023-03-31T04:03:36.151Z,78.34
2023-03-31T04:08:37.761Z,78.83
2023-03-31T04:13:39.337Z,79.15
2023-03-31T04:18:43.627Z,78.45
2023-03-31T04:23:47.878Z,79.07
2023-03-31T04:28:50.717Z,79.85
2023-03-31T04:33:53.441Z,79.33
2023-03-31T04:38:55.135Z,79.32
2023-03-31T04:43:56.813Z,79.52
2023-03-31T04:48:59.249Z,78.67
2023-03-31T04:54:00.922Z,78.84
2023-03-31T04:59:03.965Z,77.49
2023-03-31T05:04:05.986Z,78.52
2023-03-31T05:09:09.620Z,77.99
2023-03-31T05:14:11.272Z,78.77
2023-03-31T05:19:12.878Z,79.07
2023-03-31T05:24:14.845Z,79.25
2023-03-31T05:29:16.796Z,79.25
2023-03-31T05:34:18.436Z,79.48
2023-03-31T05:39:20.088Z,78.53
2023-03-31T05:44:21.697Z,79.09
2023-03-31T05:49:23.283Z,77.91
2023-03-31T05:54:24.964Z,76.72
2023-03-31T05:59:26.732Z,75.67
2023-03-31T06:04:28.588Z,75.58
2023-03-31T06:09:30.420Z,74.84
2023-03-31T06:14:32.009Z,74.59
2023-03-31T06:19:33.626Z,74.87
2023-03-31T06:24:35.385Z,74.69
2023-03-31T06:29:37.000Z,74.58
2023-03-31T06:34:38.654Z,74.23
2023-03-31T06:39:40.407Z,74.33
2023-03-31T06:44:42.014Z,74.80
2023-03-31T06:49:43.642Z,73.85
2023-03-31T06:54:45.671Z,73.86
2023-03-31T06:59:47.438Z,72.59
2023-03-31T07:04:49.004Z,72.87
2023-03-31T07:09:50.618Z,72.93
2023-03-31T07:14:52.235Z,72.89
2023-03-31T07:19:53.874Z,72.52
2023-03-31T07:24:55.561Z,73.38
2023-03-31T07:29:57.198Z,71.46
2023-03-31T07:34:59.245Z,69.95
2023-03-31T07:40:00.917Z,70.01
2023-03-31T07:45:06.230Z,69.22
2023-03-31T07:50:08.448Z,68.48
2023-03-31T07:55:10.510Z,67.26
2023-03-31T08:00:12.832Z,66.95
2023-03-31T08:05:16.389Z,67.00
2023-03-31T08:10:24.935Z,66.71
2023-03-31T08:15:26.629Z,66.31
2023-03-31T08:20:28.240Z,66.26
2023-03-31T08:25:29.835Z,66.45
2023-03-31T08:30:31.413Z,66.89
2023-03-31T08:35:33.334Z,66.58
2023-03-31T08:40:34.997Z,66.07
2023-03-31T08:45:40.243Z,66.46
2023-03-31T08:50:47.780Z,66.93
2023-03-31T08:55:51.244Z,66.81
2023-03-31T09:01:14.165Z,67.13
2023-03-31T09:06:21.144Z,67.37
2023-03-31T09:11:36.334Z,69.68
2023-03-31T09:16:56.222Z,70.46
2023-03-31T09:22:00.429Z,69.08
2023-03-31T09:27:12.255Z,68.89
2023-03-31T09:32:18.033Z,69.46
2023-03-31T09:37:19.802Z,69.62
2023-03-31T09:42:21.422Z,69.61
2023-03-31T09:47:32.704Z,69.27
2023-03-31T09:52:53.390Z,69.56
2023-03-31T09:57:54.976Z,70.07
2023-03-31T10:02:57.781Z,70.02
2023-03-31T10:08:14.407Z,70.76
2023-03-31T10:13:48.251Z,69.64
2023-03-31T10:18:49.979Z,69.61
2023-03-31T10:23:52.561Z,69.64
2023-03-31T10:28:55.370Z,68.87
2023-03-31T10:33:58.403Z,69.56
2023-03-31T10:39:00.147Z,69.20
2023-03-31T10:44:04.086Z,68.56
2023-03-31T10:49:24.382Z,68.83
2023-03-31T10:54:26.769Z,69.12
2023-03-31T10:59:51.817Z,68.67
2023-03-31T11:04:59.082Z,70.72
2023-03-31T11:10:28.058Z,72.53
2023-03-31T11:15:43.021Z,72.22
2023-03-31T11:21:04.022Z,73.08
2023-03-31T11:26:26.010Z,73.18
2023-03-31T11:31:34.018Z,74.29
2023-03-31T11:36:50.566Z,75.93
2023-03-31T11:42:01.415Z,75.51
2023-03-31T11:47:13.652Z,77.13
2023-03-31T11:52:17.258Z,77.61
2023-03-31T11:57:40.632Z,77.72
2023-03-31T12:03:19.829Z,78.41
2023-03-31T12:08:41.928Z,77.74
2023-03-31T12:13:56.253Z,78.53
2023-03-31T12:19:03.173Z,78.50
2023-03-31T12:24:06.513Z,78.37
2023-03-31T12:29:21.090Z,79.85
2023-03-31T12:34:24.682Z,81.20
2023-03-31T12:39:47.370Z,82.72
2023-03-31T12:45:24.154Z,84.08
2023-03-31T12:50:28.640Z,84.11
2023-03-31T12:55:37.486Z,84.92
2023-03-31T13:00:59.175Z,84.23
2023-03-31T13:06:01.641Z,85.47
2023-03-31T13:11:03.296Z,83.97
2023-03-31T13:16:05.229Z,84.06
2023-03-31T13:21:08.340Z,84.84
2023-03-31T13:26:32.597Z,84.75
2023-03-31T13:32:00.430Z,85.27
2023-03-31T13:37:29.069Z,85.51
2023-03-31T13:42:33.361Z,85.46
2023-03-31T13:47:41.386Z,84.49
2023-03-31T13:52:45.886Z,85.80
2023-03-31T13:58:05.393Z,85.79
2023-03-31T14:03:41.544Z,83.15
2023-03-31T14:08:58.126Z,81.97
2023-03-31T14:14:06.716Z,79.57
2023-03-31T14:19:32.507Z,76.76
2023-03-31T14:24:41.272Z,75.74
2023-03-31T14:29:58.057Z,75.15
2023-03-31T14:34:59.852Z,74.63
2023-03-31T14:40:01.844Z,73.80
2023-03-31T14:45:06.197Z,72.85
2023-03-31T14:50:15.408Z,72.57
2023-03-31T14:55:18.710Z,73.24
2023-03-31T15:00:29.787Z,72.96
2023-03-31T15:05:33.389Z,72.99
2023-03-31T15:10:45.595Z,73.35
2023-03-31T15:15:47.251Z,72.52
2023-03-31T15:20:48.910Z,72.19
2023-03-31T15:26:08.132Z,71.73
2023-03-31T15:31:10.827Z,72.13
2023-03-31T15:36:12.903Z,72.98
2023-03-31T15:41:16.904Z,74.02
2023-03-31T15:46:40.738Z,73.72
2023-03-31T15:51:42.328Z,74.41
2023-03-31T15:56:45.601Z,74.25
2023-03-31T16:01:49.491Z,74.30
2023-03-31T16:06:57.977Z,74.11
2023-03-31T16:12:02.855Z,73.86
2023-03-31T16:17:09.044Z,74.17
2023-03-31T16:22:15.746Z,73.94
2023-03-31T16:27:18.416Z,75.59
2023-03-31T16:32:20.943Z,75.33
2023-03-31T16:37:23.145Z,76.33
2023-03-31T16:42:24.993Z,76.68
2023-03-31T16:47:35.258Z,76.75
2023-03-31T16:52:38.045Z,77.58
2023-03-31T16:57:39.643Z,77.08
2023-03-31T17:02:41.619Z,77.44
2023-03-31T17:07:43.369Z,76.70
2023-03-31T17:12:45.024Z,76.82
2023-03-31T17:17:47.737Z,77.71
2023-03-31T17:22:49.473Z,77.77
2023-03-31T17:27:51.103Z,78.74
2023-03-31T17:32:52.835Z,79.81
2023-03-31T17:37:55.247Z,79.45
2023-03-31T17:42:56.870Z,79.40
2023-03-31T17:47:59.258Z,79.55
2023-03-31T17:53:01.438Z,79.74
2023-03-31T17:58:03.436Z,80.75
2023-03-31T18:03:05.260Z,80.83
2023-03-31T18:08:07.256Z,79.39
2023-03-31T18:13:09.778Z,79.20
2023-03-31T18:18:11.560Z,79.47
2023-03-31T18:23:13.288Z,79.51
2023-03-31T18:28:16.320Z,79.21
2023-03-31T18:33:17.996Z,79.98
2023-03-31T18:38:19.818Z,80.23
2023-03-31T18:43:25.168Z,79.38
2023-03-31T18:48:27.099Z,80.01
2023-03-31T18:53:30.083Z,79.47
2023-03-31T18:58:31.829Z,79.00
2023-03-31T19:03:33.535Z,78.29
2023-03-31T19:08:35.271Z,78.39
2023-03-31T19:13:38.156Z,79.02
2023-03-31T19:18:39.850Z,78.73
2023-03-31T19:23:41.515Z,75.65
2023-03-31T19:28:43.168Z,73.98
2023-03-31T19:33:44.793Z,74.08
2023-03-31T19:38:46.520Z,72.98
2023-03-31T19:43:48.970Z,72.73
2023-03-31T19:48:51.207Z,72.41
2023-03-31T19:53:53.617Z,72.86
2023-03-31T19:58:55.395Z,72.49
2023-03-31T20:03:57.524Z,73.07
2023-03-31T20:09:00.773Z,72.95
2023-03-31T20:14:03.598Z,73.22
2023-03-31T20:19:06.323Z,73.47
2023-03-31T20:24:08.446Z,73.84
2023-03-31T20:29:10.661Z,73.83
2023-03-31T20:34:16.852Z,74.23
2023-03-31T20:39:19.904Z,75.61
2023-03-31T20:44:21.916Z,75.42
2023-03-31T20:49:23.567Z,75.99
2023-03-31T20:54:25.215Z,76.52
2023-03-31T20:59:27.131Z,76.82
2023-03-31T21:04:28.775Z,76.83
2023-03-31T21:09:31.027Z,77.03
2023-03-31T21:14:33.082Z,77.10
2023-03-31T21:19:34.698Z,76.89
2023-03-31T21:24:36.490Z,77.16
2023-03-31T21:29:38.180Z,77.79
2023-03-31T21:34:39.851Z,77.58
2023-03-31T21:39:41.426Z,79.80
2023-03-31T21:44:43.613Z,79.53
2023-03-31T21:49:45.304Z,79.62
2023-03-31T21:54:47.127Z,79.11
2023-03-31T21:59:48.741Z,78.91
2023-03-31T22:04:50.862Z,79.12
2023-03-31T22:09:52.609Z,78.97
2023-03-31T22:14:54.557Z,78.78
2023-03-31T22:19:56.933Z,78.35
2023-03-31T22:24:58.550Z,77.88
2023-03-31T22:30:00.590Z,77.86
2023-03-31T22:35:02.215Z,77.52
2023-03-31T22:40:04.726Z,78.61
2023-03-31T22:45:06.957Z,77.12
2023-03-31T22:50:09.955Z,77.76
2023-03-31T22:55:11.652Z,77.50
2023-03-31T23:00:13.869Z,77.88
2023-03-31T23:05:15.733Z,78.12
2023-03-31T23:10:17.501Z,77.91
2023-03-31T23:15:19.117Z,77.57
2023-03-31T23:20:21.358Z,77.65
2023-03-31T23:25:23.037Z,78.72
2023-03-31T23:30:25.081Z,77.90
2023-03-31T23:35:27.283Z,77.89
2023-03-31T23:40:28.880Z,77.90
2023-03-31T23:45:30.668Z,78.37
2023-03-31T23:50:33.896Z,78.76
2023-03-31T23:55:35.755Z,80.42
